createdAt,value
2018-04-09T00:00:13.300Z,67.52
2018-04-09T00:01:13.209Z,68.48
2018-04-09T00:02:13.319Z,67.49
2018-04-09T00:03:13.231Z,66.35
2018-04-09T00:04:13.348Z,66.15
2018-04-09T00:05:13.259Z,65.87
2018-04-09T00:06:13.347Z,65.67
2018-04-09T00:07:13.278Z,64.85
2018-04-09T00:08:13.361Z,64.75
2018-04-09T00:09:13.313Z,64.65
2018-04-09T00:10:13.376Z,64.85
2018-04-09T00:11:13.328Z,64.37
2018-04-09T00:12:13.493Z,63.99
2018-04-09T00:13:13.349Z,63.80
2018-04-09T00:14:13.496Z,63.99
2018-04-09T00:15:13.384Z,63.99
2018-04-09T00:16:13.532Z,63.60
2018-04-09T00:17:13.408Z,63.51
2018-04-09T00:18:13.538Z,63.80
2018-04-09T00:19:13.438Z,63.70
2018-04-09T00:20:13.551Z,63.89
2018-04-09T00:21:13.463Z,63.80
2018-04-09T00:22:13.554Z,64.18
2018-04-09T00:23:13.482Z,63.99
2018-04-09T00:24:13.582Z,64.28
2018-04-09T00:25:13.523Z,64.18
2018-04-09T00:26:13.687Z,64.28
2018-04-09T00:27:13.537Z,64.09
2018-04-09T00:28:13.709Z,64.09
2018-04-09T00:29:13.559Z,63.89
2018-04-09T00:30:13.718Z,63.99
2018-04-09T00:31:13.588Z,64.28
2018-04-09T00:32:13.731Z,64.75
2018-04-09T00:33:13.605Z,65.61
2018-04-09T00:34:13.752Z,66.28
2018-04-09T00:35:13.632Z,66.95
2018-04-09T00:36:13.753Z,66.63
2018-04-09T00:37:13.657Z,66.53
2018-04-09T00:38:13.776Z,66.63
2018-04-09T00:39:13.693Z,66.53
2018-04-09T00:40:13.785Z,66.82
2018-04-09T00:41:13.711Z,67.21
2018-04-09T00:42:13.792Z,67.68
2018-04-09T00:43:13.740Z,68.16
2018-04-09T00:44:13.921Z,67.97
2018-04-09T00:45:13.758Z,68.44
2018-04-09T00:46:14.845Z,68.88
2018-04-09T00:47:13.785Z,68.79
2018-04-09T00:48:13.938Z,69.37
2018-04-09T00:49:13.810Z,69.56
2018-04-09T00:50:13.956Z,69.74
2018-04-09T00:51:13.836Z,70.22
2018-04-09T00:52:13.964Z,70.70
2018-04-09T00:53:13.863Z,70.89
2018-04-09T00:54:13.989Z,70.89
2018-04-09T00:55:13.883Z,71.08
2018-04-09T00:56:13.995Z,71.46
2018-04-09T00:57:13.915Z,71.46
2018-04-09T00:58:14.004Z,71.46
2018-04-09T00:59:13.937Z,71.52
2018-04-09T01:00:14.127Z,71.14
2018-04-09T01:01:13.965Z,71.33
2018-04-09T01:02:14.136Z,71.52
2018-04-09T01:03:13.990Z,71.62
2018-04-09T01:04:14.154Z,71.62
2018-04-09T01:05:14.018Z,71.72
2018-04-09T01:06:14.167Z,71.62
2018-04-09T01:07:14.029Z,71.91
2018-04-09T01:08:14.174Z,72.19
2018-04-09T01:09:14.062Z,72.19
2018-04-09T01:10:14.186Z,72.19
2018-04-09T01:11:14.087Z,72.19
2018-04-09T01:12:14.203Z,72.38
2018-04-09T01:13:14.110Z,72.67
2018-04-09T01:14:14.218Z,72.96
2018-04-09T01:15:14.134Z,72.96
2018-04-09T01:16:14.228Z,72.86
2018-04-09T01:17:14.157Z,73.14
2018-04-09T01:18:14.346Z,73.33
2018-04-09T01:19:14.184Z,73.72
2018-04-09T01:20:15.283Z,73.81
2018-04-09T01:21:14.212Z,74.10
2018-04-09T01:22:14.373Z,73.81
2018-04-09T01:23:14.234Z,73.91
2018-04-09T01:24:14.386Z,73.91
2018-04-09T01:25:14.260Z,73.62
2018-04-09T01:26:14.399Z,73.52
2018-04-09T01:27:14.300Z,73.72
2018-04-09T01:28:14.411Z,74.01
2018-04-09T01:29:14.310Z,74.19
2018-04-09T01:30:14.429Z,74.19
2018-04-09T01:31:14.352Z,74.10
2018-04-09T01:32:14.447Z,74.67
2018-04-09T01:33:14.354Z,74.77
2018-04-09T01:34:15.482Z,75.24
2018-04-09T01:35:14.378Z,75.24
2018-04-09T01:36:14.585Z,75.24
2018-04-09T01:37:14.404Z,75.15
2018-04-09T01:38:14.598Z,75.24
2018-04-09T01:39:14.428Z,75.24
2018-04-09T01:40:14.599Z,75.43
2018-04-09T01:41:14.488Z,75.34
2018-04-09T01:42:14.613Z,75.24
2018-04-09T01:43:14.480Z,75.43
2018-04-09T01:44:14.631Z,75.43
2018-04-09T01:45:14.504Z,75.15
2018-04-09T01:46:14.639Z,75.15
2018-04-09T01:47:14.532Z,75.05
2018-04-09T01:48:14.655Z,75.24
2018-04-09T01:49:14.557Z,75.34
2018-04-09T01:50:14.667Z,75.34
2018-04-09T01:51:14.597Z,75.78
2018-04-09T01:52:14.685Z,75.20
2018-04-09T01:53:14.598Z,75.40
2018-04-09T01:54:14.801Z,75.30
2018-04-09T01:55:14.624Z,75.49
2018-04-09T01:56:14.812Z,75.68
2018-04-09T01:57:14.650Z,75.87
2018-04-09T01:58:14.826Z,75.87
2018-04-09T01:59:14.674Z,75.68
2018-04-09T02:00:14.839Z,75.68
2018-04-09T02:01:14.713Z,75.49
2018-04-09T02:02:14.856Z,75.78
2018-04-09T02:03:14.724Z,76.06
2018-04-09T02:04:14.871Z,76.06
2018-04-09T02:05:14.746Z,75.96
2018-04-09T02:06:14.880Z,75.59
2018-04-09T02:07:14.770Z,75.87
2018-04-09T02:08:14.892Z,75.87
2018-04-09T02:09:14.797Z,76.16
2018-04-09T02:10:14.905Z,76.25
2018-04-09T02:11:14.834Z,76.25
2018-04-09T02:12:15.024Z,76.25
2018-04-09T02:13:14.847Z,76.54
2018-04-09T02:14:15.040Z,76.54
2018-04-09T02:15:14.880Z,76.44
2018-04-09T02:16:15.052Z,76.16
2018-04-09T02:17:14.886Z,76.25
2018-04-09T02:18:15.061Z,76.35
2018-04-09T02:19:14.911Z,76.54
2018-04-09T02:20:15.083Z,76.82
2018-04-09T02:21:14.936Z,76.82
2018-04-09T02:22:15.089Z,76.98
2018-04-09T02:23:14.979Z,77.17
2018-04-09T02:24:15.116Z,77.36
2018-04-09T02:25:14.986Z,77.45
2018-04-09T02:26:15.072Z,77.74
2018-04-09T02:27:15.018Z,77.83
2018-04-09T02:28:15.086Z,77.74
2018-04-09T02:29:15.040Z,78.03
2018-04-09T02:30:15.208Z,78.22
2018-04-09T02:31:15.070Z,78.31
2018-04-09T02:32:15.224Z,78.12
2018-04-09T02:33:15.091Z,78.03
2018-04-09T02:34:15.230Z,78.22
2018-04-09T02:35:15.120Z,78.22
2018-04-09T02:36:15.246Z,78.41
2018-04-09T02:37:15.135Z,78.41
2018-04-09T02:38:15.257Z,78.22
2018-04-09T02:39:15.164Z,78.31
2018-04-09T02:40:15.376Z,78.50
2018-04-09T02:41:15.195Z,78.41
2018-04-09T02:42:15.294Z,78.50
2018-04-09T02:43:15.203Z,78.59
2018-04-09T02:44:15.316Z,78.78
2018-04-09T02:45:15.226Z,78.88
2018-04-09T02:46:15.298Z,79.17
2018-04-09T02:47:15.252Z,79.07
2018-04-09T02:48:15.414Z,78.98
2018-04-09T02:49:15.280Z,79.07
2018-04-09T02:50:15.428Z,79.27
2018-04-09T02:51:15.301Z,79.36
2018-04-09T02:52:15.442Z,79.36
2018-04-09T02:53:15.325Z,79.46
2018-04-09T02:54:15.454Z,79.22
2018-04-09T02:55:15.346Z,79.22
2018-04-09T02:56:15.492Z,79.41
2018-04-09T02:57:15.370Z,79.51
2018-04-09T02:58:15.481Z,79.70
2018-04-09T02:59:15.396Z,79.60
2018-04-09T03:00:15.505Z,79.60
2018-04-09T03:01:15.435Z,79.70
2018-04-09T03:02:15.510Z,79.70
2018-04-09T03:03:15.438Z,79.51
2018-04-09T03:04:15.529Z,79.51
2018-04-09T03:05:15.461Z,79.60
2018-04-09T03:06:15.546Z,79.70
2018-04-09T03:07:15.490Z,79.80
2018-04-09T03:08:15.664Z,79.60
2018-04-09T03:09:15.522Z,79.51
2018-04-09T03:10:15.675Z,79.60
2018-04-09T03:11:15.535Z,79.70
2018-04-09T03:12:15.690Z,79.70
2018-04-09T03:13:15.564Z,79.89
2018-04-09T03:14:15.701Z,79.99
2018-04-09T03:15:15.583Z,80.08
2018-04-09T03:16:15.721Z,80.08
2018-04-09T03:17:15.605Z,80.36
2018-04-09T03:18:15.726Z,80.36
2018-04-09T03:19:15.641Z,80.46
2018-04-09T03:20:15.741Z,80.46
2018-04-09T03:21:15.681Z,80.36
2018-04-09T03:22:15.749Z,80.46
2018-04-09T03:23:15.677Z,80.55
2018-04-09T03:24:15.765Z,80.36
2018-04-09T03:25:15.701Z,80.46
2018-04-09T03:26:15.778Z,80.46
2018-04-09T03:27:15.763Z,80.84
2018-04-09T03:28:15.917Z,80.84
2018-04-09T03:29:15.746Z,80.84
2018-04-09T03:30:15.906Z,81.03
2018-04-09T03:31:15.776Z,81.41
2018-04-09T03:32:15.917Z,81.70
2018-04-09T03:33:15.799Z,81.89
2018-04-09T03:34:15.928Z,81.89
2018-04-09T03:35:15.817Z,82.08
2018-04-09T03:36:15.961Z,82.37
2018-04-09T03:37:15.843Z,82.46
2018-04-09T03:38:15.962Z,82.56
2018-04-09T03:39:15.866Z,82.84
2018-04-09T03:40:16.038Z,82.93
2018-04-09T03:41:15.890Z,82.84
2018-04-09T03:42:15.986Z,82.84
2018-04-09T03:43:15.918Z,82.93
2018-04-09T03:44:16.015Z,83.03
2018-04-09T03:45:15.933Z,83.03
2018-04-09T03:46:16.139Z,83.22
2018-04-09T03:47:15.952Z,83.13
2018-04-09T03:48:16.158Z,82.93
2018-04-09T03:49:15.988Z,83.13
2018-04-09T03:50:16.144Z,83.22
2018-04-09T03:51:16.005Z,83.32
2018-04-09T03:52:16.161Z,83.22
2018-04-09T03:53:16.021Z,83.13
2018-04-09T03:54:16.180Z,83.13
2018-04-09T03:55:16.054Z,83.03
2018-04-09T03:56:16.187Z,83.13
2018-04-09T03:57:16.067Z,83.13
2018-04-09T03:58:16.251Z,83.32
2018-04-09T03:59:16.097Z,83.22
2018-04-09T04:00:16.219Z,82.93
2018-04-09T04:01:16.119Z,82.75
2018-04-09T04:02:16.232Z,82.65
2018-04-09T04:03:16.139Z,82.56
2018-04-09T04:04:16.248Z,82.56
2018-04-09T04:05:16.166Z,82.56
2018-04-09T04:06:16.359Z,82.46
2018-04-09T04:07:16.186Z,82.56
2018-04-09T04:08:16.368Z,82.75
2018-04-09T04:09:16.208Z,82.84
2018-04-09T04:10:16.389Z,82.84
2018-04-09T04:11:16.236Z,82.56
2018-04-09T04:12:16.484Z,82.56
2018-04-09T04:13:16.257Z,82.56
2018-04-09T04:14:16.396Z,82.46
2018-04-09T04:15:16.277Z,82.37
2018-04-09T04:16:16.412Z,82.37
2018-04-09T04:17:16.306Z,82.46
2018-04-09T04:18:16.422Z,82.27
2018-04-09T04:19:16.327Z,82.27
2018-04-09T04:20:16.450Z,82.27
2018-04-09T04:21:16.345Z,82.46
2018-04-09T04:22:16.454Z,82.56
2018-04-09T04:23:16.370Z,82.65
2018-04-09T04:24:16.464Z,82.75
2018-04-09T04:25:16.393Z,82.84
2018-04-09T04:26:17.512Z,83.03
2018-04-09T04:27:16.419Z,83.03
2018-04-09T04:28:16.594Z,83.09
2018-04-09T04:29:16.438Z,83.28
2018-04-09T04:30:16.610Z,83.37
2018-04-09T04:31:16.463Z,83.65
2018-04-09T04:32:16.621Z,83.94
2018-04-09T04:33:16.491Z,84.13
2018-04-09T04:34:17.661Z,84.61
2018-04-09T04:35:16.506Z,84.80
2018-04-09T04:36:16.652Z,84.99
2018-04-09T04:37:16.529Z,85.08
2018-04-09T04:38:16.665Z,85.08
2018-04-09T04:39:16.596Z,85.18
2018-04-09T04:40:16.679Z,85.18
2018-04-09T04:41:16.571Z,85.08
2018-04-09T04:42:16.705Z,85.08
2018-04-09T04:43:16.608Z,85.18
2018-04-09T04:44:16.704Z,85.18
2018-04-09T04:45:16.622Z,85.37
2018-04-09T04:46:16.720Z,85.37
2018-04-09T04:47:16.642Z,85.28
2018-04-09T04:48:16.821Z,85.28
2018-04-09T04:49:16.680Z,85.47
2018-04-09T04:50:16.830Z,85.56
2018-04-09T04:51:16.682Z,85.66
2018-04-09T04:52:16.808Z,85.85
2018-04-09T04:53:16.710Z,85.85
2018-04-09T04:54:16.821Z,86.08
2018-04-09T04:55:16.738Z,86.18
2018-04-09T04:56:16.855Z,86.36
2018-04-09T04:57:16.773Z,86.27
2018-04-09T04:58:16.878Z,86.27
2018-04-09T04:59:16.776Z,86.27
2018-04-09T06:03:42.678Z,82.15
2018-04-09T06:04:42.570Z,82.06
2018-04-09T06:05:42.458Z,81.96
2018-04-09T06:06:42.482Z,81.86
2018-04-09T06:07:42.481Z,82.06
2018-04-09T06:08:42.490Z,82.06
2018-04-09T06:09:42.502Z,81.96
2018-04-09T06:10:42.529Z,81.96
2018-04-09T06:11:42.555Z,82.06
2018-04-09T06:12:42.566Z,82.06
2018-04-09T06:13:42.541Z,81.96
2018-04-09T06:14:42.561Z,82.09
2018-04-09T06:15:42.572Z,82.09
2018-04-09T06:16:42.587Z,82.09
2018-04-09T06:17:42.587Z,82.00
2018-04-09T06:18:42.602Z,81.90
2018-04-09T06:19:42.610Z,81.90
2018-04-09T06:20:42.685Z,81.81
2018-04-09T06:21:42.630Z,81.81
2018-04-09T06:22:42.680Z,81.81
2018-04-09T06:23:42.778Z,81.81
2018-04-09T06:24:42.667Z,81.81
2018-04-09T06:25:42.891Z,81.81
2018-04-09T06:26:42.745Z,81.81
2018-04-09T06:27:42.919Z,81.81
2018-04-09T06:28:42.764Z,81.71
2018-04-09T06:29:42.934Z,81.71
2018-04-09T06:30:42.729Z,81.71
2018-04-09T06:31:42.930Z,81.62
2018-04-09T06:32:42.761Z,81.62
2018-04-09T06:33:42.944Z,81.43
2018-04-09T06:34:42.815Z,81.24
2018-04-09T06:35:42.858Z,81.24
2018-04-09T06:36:42.798Z,81.24
2018-04-09T06:37:42.872Z,81.24
2018-04-09T06:38:42.840Z,81.24
2018-04-09T06:39:42.886Z,81.14
2018-04-09T06:40:42.841Z,81.14
2018-04-09T06:41:42.909Z,80.85
2018-04-09T06:42:42.860Z,80.57
2018-04-09T06:43:42.912Z,80.57
2018-04-09T06:44:42.881Z,80.47
2018-04-09T06:45:42.927Z,80.13
2018-04-09T06:46:42.914Z,80.04
2018-04-09T06:47:43.142Z,79.85
2018-04-09T06:48:42.930Z,79.65
2018-04-09T06:49:43.063Z,79.65
2018-04-09T06:50:42.961Z,79.65
2018-04-09T06:51:43.990Z,79.75
2018-04-09T06:52:42.970Z,79.94
2018-04-09T06:53:43.087Z,80.04
2018-04-09T06:54:42.993Z,79.85
2018-04-09T06:55:43.093Z,79.65
2018-04-09T06:56:43.018Z,79.36
2018-04-09T06:57:43.131Z,79.36
2018-04-09T06:58:43.036Z,79.08
2018-04-09T06:59:43.142Z,79.17
2018-04-09T07:00:43.057Z,78.79
2018-04-09T07:01:43.134Z,78.60
2018-04-09T07:02:43.102Z,78.60
2018-04-09T07:03:43.180Z,78.51
2018-04-09T07:04:43.112Z,78.45
2018-04-09T07:05:43.176Z,78.16
2018-04-09T07:06:43.119Z,77.87
2018-04-09T07:07:43.175Z,77.78
2018-04-09T07:08:43.164Z,77.40
2018-04-09T07:09:43.296Z,77.01
2018-04-09T07:10:43.211Z,76.16
2018-04-09T07:11:43.306Z,75.78
2018-04-09T07:12:43.218Z,75.59
2018-04-09T07:13:43.317Z,75.81
2018-04-09T07:14:43.209Z,74.66
2018-04-09T07:15:44.360Z,74.57
2018-04-09T07:16:43.246Z,74.48
2018-04-09T07:17:43.347Z,74.57
2018-04-09T07:18:43.254Z,74.76
2018-04-09T07:19:43.361Z,75.24
2018-04-09T07:20:43.301Z,75.14
2018-04-09T07:21:43.372Z,75.43
2018-04-09T07:22:43.343Z,75.52
2018-04-09T07:23:43.391Z,75.59
2018-04-09T07:24:43.340Z,76.06
2018-04-09T07:25:43.401Z,76.35
2018-04-09T07:26:43.347Z,76.45
2018-04-09T07:27:43.412Z,76.54
2018-04-09T07:28:43.373Z,76.73
2018-04-09T07:29:43.445Z,76.54
2018-04-09T07:30:43.385Z,76.64
2018-04-09T07:31:43.441Z,76.45
2018-04-09T07:32:43.400Z,76.35
2018-04-09T07:33:43.590Z,76.54
2018-04-09T07:34:43.515Z,76.16
2018-04-09T07:35:43.570Z,76.16
2018-04-09T07:36:43.448Z,76.35
2018-04-09T07:37:43.586Z,76.54
2018-04-09T07:38:43.476Z,76.35
2018-04-09T07:39:43.601Z,76.64
2018-04-09T07:40:43.495Z,76.45
2018-04-09T07:41:43.610Z,76.57
2018-04-09T07:42:43.510Z,76.45
2018-04-09T07:43:43.629Z,76.54
2018-04-09T07:44:43.532Z,76.39
2018-04-09T07:45:43.537Z,76.29
2018-04-09T07:46:43.645Z,76.35
2018-04-09T07:47:43.571Z,76.54
2018-04-09T07:48:43.671Z,76.64
2018-04-09T07:49:43.587Z,76.45
2018-04-09T07:50:43.783Z,76.64
2018-04-09T07:51:43.639Z,76.54
2018-04-09T07:52:43.685Z,76.73
2018-04-09T07:53:43.639Z,76.82
2018-04-09T07:54:44.730Z,76.96
2018-04-09T07:55:43.656Z,76.77
2018-04-09T07:56:43.709Z,76.86
2018-04-09T07:57:43.672Z,77.06
2018-04-09T07:58:43.799Z,76.77
2018-04-09T07:59:43.703Z,76.57
2018-04-09T08:00:44.763Z,76.48
2018-04-09T08:01:43.736Z,76.48
2018-04-09T08:02:43.828Z,76.57
2018-04-09T08:03:43.731Z,76.20
2018-04-09T08:04:43.863Z,75.91
2018-04-09T08:05:43.754Z,76.00
2018-04-09T08:06:43.852Z,76.00
2018-04-09T08:07:43.785Z,75.81
2018-04-09T08:08:43.863Z,75.91
2018-04-09T08:09:43.795Z,75.62
2018-04-09T08:10:43.873Z,75.81
2018-04-09T08:11:43.827Z,75.52
2018-04-09T08:12:43.904Z,75.52
2018-04-09T08:13:43.847Z,75.52
2018-04-09T08:14:43.903Z,75.18
2018-04-09T08:15:43.869Z,74.61
2018-04-09T08:16:43.916Z,74.41
2018-04-09T08:17:43.887Z,74.22
2018-04-09T08:18:43.925Z,73.84
2018-04-09T08:19:43.908Z,73.36
2018-04-09T08:20:44.050Z,73.55
2018-04-09T08:21:43.923Z,73.46
2018-04-09T08:22:43.954Z,72.50
2018-04-09T08:23:43.968Z,72.22
2018-04-09T08:24:43.966Z,72.31
2018-04-09T08:25:43.979Z,72.44
2018-04-09T08:26:43.979Z,72.44
2018-04-09T08:27:43.993Z,71.97
2018-04-09T08:28:44.010Z,71.97
2018-04-09T08:29:44.011Z,72.16
2018-04-09T08:30:44.107Z,71.68
2018-04-09T08:31:44.069Z,71.11
2018-04-09T08:32:44.121Z,71.48
2018-04-09T08:33:44.061Z,71.68
2018-04-09T08:34:44.125Z,71.77
2018-04-09T08:35:44.081Z,72.06
2018-04-09T08:36:44.147Z,72.44
2018-04-09T08:37:44.120Z,72.16
2018-04-09T08:38:44.160Z,72.16
2018-04-09T08:39:44.183Z,72.16
2018-04-09T08:40:44.175Z,72.44
2018-04-09T08:41:44.131Z,72.54
2018-04-09T08:42:44.178Z,72.34
2018-04-09T08:43:44.151Z,71.97
2018-04-09T08:44:44.181Z,71.97
2018-04-09T08:45:44.183Z,71.68
2018-04-09T08:46:44.299Z,71.39
2018-04-09T08:47:44.203Z,71.01
2018-04-09T08:48:44.319Z,70.81
2018-04-09T08:49:44.232Z,71.01
2018-04-09T08:50:44.347Z,70.91
2018-04-09T08:51:44.252Z,71.11
2018-04-09T08:52:44.367Z,71.11
2018-04-09T08:53:44.302Z,70.91
2018-04-09T08:54:44.355Z,70.85
2018-04-09T08:55:44.295Z,70.09
2018-04-09T08:56:44.370Z,69.51
2018-04-09T08:57:44.316Z,69.70
2018-04-09T08:58:44.384Z,69.70
2018-04-09T08:59:44.340Z,69.42
2018-04-09T09:00:44.393Z,69.23
2018-04-09T09:01:44.371Z,68.74
2018-04-09T09:02:44.410Z,68.46
2018-04-09T09:03:44.383Z,68.65
2018-04-09T09:04:44.440Z,68.74
2018-04-09T09:05:44.463Z,68.65
2018-04-09T09:06:44.439Z,67.79
2018-04-09T09:07:44.435Z,67.69
2018-04-09T09:08:44.553Z,67.69
2018-04-09T09:09:44.513Z,67.98
2018-04-09T09:10:44.618Z,67.69
2018-04-09T09:11:44.490Z,67.79
2018-04-09T09:12:44.683Z,67.79
2018-04-09T09:13:44.513Z,67.69
2018-04-09T09:14:44.591Z,67.60
2018-04-09T09:15:44.534Z,67.69
2018-04-09T09:16:44.602Z,67.88
2018-04-09T09:17:44.566Z,67.88
2018-04-09T09:18:44.614Z,68.07
2018-04-09T09:19:44.601Z,67.69
2018-04-09T09:20:44.630Z,67.72
2018-04-09T09:21:44.613Z,67.63
2018-04-09T09:22:44.648Z,67.15
2018-04-09T09:23:44.635Z,66.86
2018-04-09T09:24:44.754Z,66.77
2018-04-09T09:25:44.657Z,67.05
2018-04-09T09:26:44.696Z,66.86
2018-04-09T09:27:44.693Z,66.58
2018-04-09T09:28:44.802Z,66.67
2018-04-09T09:29:44.915Z,66.77
2018-04-09T09:30:44.722Z,66.67
2018-04-09T09:31:44.735Z,66.00
2018-04-09T09:32:44.750Z,66.00
2018-04-09T09:33:45.808Z,66.09
2018-04-09T09:34:44.780Z,66.19
2018-04-09T09:35:44.899Z,66.29
2018-04-09T09:36:44.803Z,66.19
2018-04-09T09:37:44.916Z,65.81
2018-04-09T09:38:44.831Z,65.71
2018-04-09T09:39:44.926Z,65.33
2018-04-09T09:40:44.848Z,65.36
2018-04-09T09:41:45.042Z,65.17
2018-04-09T09:42:44.874Z,65.55
2018-04-09T09:43:45.058Z,64.79
2018-04-09T09:44:44.889Z,64.98
2018-04-09T09:45:45.066Z,64.69
2018-04-09T09:46:44.927Z,64.22
2018-04-09T09:47:45.083Z,63.92
2018-04-09T09:48:44.947Z,64.02
2018-04-09T09:49:45.205Z,64.12
2018-04-09T09:50:44.976Z,64.31
2018-04-09T09:51:45.110Z,64.50
2018-04-09T09:52:45.003Z,64.31
2018-04-09T09:53:45.130Z,64.05
2018-04-09T09:54:45.024Z,63.57
2018-04-09T09:55:45.138Z,63.19
2018-04-09T09:56:45.048Z,62.81
2018-04-09T09:57:45.248Z,62.62
2018-04-09T09:58:45.075Z,62.45
2018-04-09T09:59:45.263Z,62.36
2018-04-09T10:00:45.099Z,61.59
2018-04-09T10:01:45.281Z,61.49
2018-04-09T10:02:45.124Z,61.40
2018-04-09T10:03:45.290Z,61.69
2018-04-09T10:04:45.146Z,61.21
2018-04-09T10:05:45.309Z,61.30
2018-04-09T10:06:45.175Z,61.02
2018-04-09T10:07:45.330Z,60.63
2018-04-09T10:08:45.203Z,60.92
2018-04-09T10:09:45.333Z,61.30
2018-04-09T10:10:45.227Z,60.63
2018-04-09T10:11:45.348Z,61.21
2018-04-09T10:12:45.248Z,61.11
2018-04-09T10:13:45.381Z,61.11
2018-04-09T10:14:45.272Z,61.33
2018-04-09T10:15:45.478Z,60.75
2018-04-09T10:16:45.298Z,60.66
2018-04-09T10:17:45.490Z,59.70
2018-04-09T10:18:45.326Z,59.61
2018-04-09T10:19:45.340Z,59.89
2018-04-09T10:20:45.353Z,60.35
2018-04-09T10:21:45.517Z,60.53
2018-04-09T10:22:45.379Z,60.53
2018-04-09T10:23:45.534Z,61.11
2018-04-09T10:24:45.402Z,60.66
2018-04-09T10:25:45.552Z,60.18
2018-04-09T10:26:45.433Z,59.80
2018-04-09T10:27:45.468Z,59.96
2018-04-09T10:28:45.466Z,60.44
2018-04-09T10:29:45.482Z,61.02
2018-04-09T10:30:45.481Z,60.53
2018-04-09T10:31:45.598Z,60.35
2018-04-09T10:32:45.502Z,60.28
2018-04-09T10:33:45.615Z,60.28
2018-04-09T10:34:45.541Z,60.28
2018-04-09T10:35:45.676Z,60.18
2018-04-09T10:36:45.555Z,59.89
2018-04-09T10:37:45.634Z,59.54
2018-04-09T10:38:45.583Z,59.25
2018-04-09T10:39:45.648Z,58.77
2018-04-09T10:40:45.609Z,58.87
2018-04-09T10:41:45.663Z,58.87
2018-04-09T10:42:45.642Z,58.87
2018-04-09T10:43:45.673Z,58.48
2018-04-09T10:44:45.661Z,58.67
2018-04-09T10:45:45.688Z,58.48
2018-04-09T10:46:45.688Z,58.48
2018-04-09T10:47:45.806Z,58.58
2018-04-09T10:48:45.709Z,58.67
2018-04-09T10:49:45.857Z,58.48
2018-04-09T10:50:45.741Z,58.10
2018-04-09T10:51:45.826Z,57.43
2018-04-09T10:52:45.763Z,57.65
2018-04-09T10:53:45.860Z,57.43
2018-04-09T10:54:45.815Z,57.62
2018-04-09T10:55:45.874Z,57.23
2018-04-09T10:56:45.818Z,57.23
2018-04-09T10:57:45.863Z,57.81
2018-04-09T10:58:45.870Z,57.52
2018-04-09T10:59:45.884Z,57.62
2018-04-09T11:00:45.866Z,57.71
2018-04-09T11:01:45.894Z,57.81
2018-04-09T11:02:45.892Z,58.00
2018-04-09T11:03:46.008Z,58.20
2018-04-09T11:04:45.930Z,58.48
2018-04-09T11:05:46.020Z,58.00
2018-04-09T11:06:45.944Z,57.81
2018-04-09T11:07:47.986Z,57.90
2018-04-09T11:08:45.972Z,57.90
2018-04-09T11:09:46.053Z,57.71
2018-04-09T11:10:45.998Z,57.62
2018-04-09T11:11:46.104Z,57.62
2018-04-09T11:12:46.022Z,57.62
2018-04-09T11:13:46.084Z,57.55
2018-04-09T11:14:46.257Z,57.36
2018-04-09T11:15:46.093Z,57.17
2018-04-09T11:16:46.078Z,57.17
2018-04-09T11:17:46.104Z,57.55
2018-04-09T11:18:46.104Z,57.07
2018-04-09T11:19:46.227Z,56.59
2018-04-09T11:20:46.129Z,56.88
2018-04-09T11:21:46.232Z,56.23
2018-04-09T11:22:46.175Z,56.71
2018-04-09T11:23:46.245Z,56.81
2018-04-09T11:24:46.183Z,56.23
2018-04-09T11:25:46.194Z,55.91
2018-04-09T11:26:46.276Z,56.11
2018-04-09T11:27:46.223Z,56.49
2018-04-09T11:28:46.281Z,56.78
2018-04-09T11:29:46.296Z,56.62
2018-04-09T11:30:46.282Z,56.23
2018-04-09T11:31:46.290Z,56.14
2018-04-09T11:32:46.307Z,56.52
2018-04-09T11:33:46.304Z,56.23
2018-04-09T11:34:46.417Z,56.33
2018-04-09T11:35:46.327Z,56.23
2018-04-09T11:36:46.435Z,56.04
2018-04-09T11:37:46.353Z,55.98
2018-04-09T11:38:46.450Z,55.59
2018-04-09T11:39:46.385Z,55.40
2018-04-09T11:40:46.460Z,55.20
2018-04-09T11:41:46.412Z,54.72
2018-04-09T11:42:46.474Z,54.82
2018-04-09T11:43:46.756Z,54.63
2018-04-09T11:44:46.448Z,54.24
2018-04-09T11:45:46.482Z,54.43
2018-04-09T11:46:46.472Z,54.53
2018-04-09T11:47:46.493Z,54.34
2018-04-09T11:48:46.533Z,54.53
2018-04-09T11:49:46.518Z,54.24
2018-04-09T11:50:46.533Z,54.34
2018-04-09T11:51:46.541Z,54.43
2018-04-09T11:52:46.677Z,54.14
2018-04-09T11:53:46.566Z,53.86
2018-04-09T11:54:46.767Z,53.88
2018-04-09T11:55:46.593Z,53.31
2018-04-09T11:56:46.705Z,53.11
2018-04-09T11:58:07.657Z,53.02
2018-04-09T11:58:46.648Z,52.75
2018-04-09T11:59:46.681Z,52.85
2018-04-09T12:00:46.657Z,52.85
2018-04-09T12:01:46.694Z,52.56
2018-04-09T12:02:46.724Z,52.18
2018-04-09T12:03:46.806Z,52.37
2018-04-09T12:04:46.721Z,52.63
2018-04-09T12:05:46.828Z,53.21
2018-04-09T12:06:46.740Z,54.08
2018-04-09T12:07:46.836Z,54.27
2018-04-09T12:08:46.764Z,54.46
2018-04-09T12:09:46.855Z,53.98
2018-04-09T12:10:46.806Z,53.28
2018-04-09T12:11:46.863Z,53.38
2018-04-09T12:12:46.823Z,53.86
2018-04-09T12:13:46.942Z,53.86
2018-04-09T12:14:46.878Z,53.57
2018-04-09T12:15:46.893Z,53.66
2018-04-09T12:16:46.874Z,53.76
2018-04-09T12:17:46.908Z,54.24
2018-04-09T12:18:46.915Z,54.34
2018-04-09T12:19:47.051Z,54.53
2018-04-09T12:20:46.920Z,54.27
2018-04-09T12:21:47.036Z,54.08
2018-04-09T12:22:46.953Z,54.08
2018-04-09T12:23:47.045Z,53.69
2018-04-09T12:24:46.977Z,53.31
2018-04-09T12:25:47.061Z,53.59
2018-04-09T12:26:47.011Z,53.40
2018-04-09T12:27:47.070Z,53.31
2018-04-09T12:28:47.038Z,53.40
2018-04-09T12:29:47.084Z,52.73
2018-04-09T12:30:47.060Z,52.15
2018-04-09T12:31:47.116Z,52.34
2018-04-09T12:32:47.092Z,51.96
2018-04-09T12:33:47.221Z,51.60
2018-04-09T12:34:47.125Z,51.12
2018-04-09T12:35:47.226Z,51.12
2018-04-09T12:36:47.151Z,50.93
2018-04-09T12:37:47.296Z,50.35
2018-04-09T12:38:47.172Z,50.45
2018-04-09T12:39:47.254Z,50.54
2018-04-09T12:40:47.214Z,49.96
2018-04-09T12:41:47.269Z,50.25
2018-04-09T12:42:47.221Z,50.54
2018-04-09T12:43:47.297Z,50.93
2018-04-09T12:44:47.250Z,50.83
2018-04-09T12:45:47.401Z,51.21
2018-04-09T12:46:47.282Z,51.21
2018-04-09T12:47:47.416Z,51.21
2018-04-09T12:48:47.321Z,51.21
2018-04-09T12:49:47.428Z,51.60
2018-04-09T12:50:47.353Z,51.96
2018-04-09T12:51:47.446Z,51.41
2018-04-09T12:52:47.361Z,51.89
2018-04-09T12:53:52.179Z,51.70
2018-04-09T12:54:47.397Z,52.08
2018-04-09T12:55:47.465Z,52.27
2018-04-09T12:56:47.413Z,51.98
2018-04-09T12:57:54.181Z,51.76
2018-04-09T12:58:47.431Z,51.79
2018-04-09T12:59:48.515Z,51.57
2018-04-09T13:00:47.464Z,51.48
2018-04-09T13:01:47.494Z,52.15
2018-04-09T13:02:47.493Z,52.15
2018-04-09T13:03:47.635Z,52.25
2018-04-09T13:04:47.534Z,51.67
2018-04-09T13:05:47.534Z,52.34
2018-04-09T13:06:47.544Z,52.06
2018-04-09T13:07:47.637Z,52.06
2018-04-09T13:08:47.571Z,52.34
2018-04-09T13:09:47.658Z,51.57
2018-04-09T13:10:47.624Z,51.38
2018-04-09T13:11:47.654Z,51.76
2018-04-09T13:12:47.623Z,51.86
2018-04-09T13:13:47.670Z,51.76
2018-04-09T13:14:47.653Z,51.76
2018-04-09T13:15:47.690Z,51.96
2018-04-09T13:16:47.699Z,52.34
2018-04-09T13:17:49.701Z,52.63
2018-04-09T13:18:47.729Z,51.96
2018-04-09T13:19:48.844Z,52.15
2018-04-09T13:20:47.737Z,51.76
2018-04-09T13:21:49.781Z,52.06
2018-04-09T13:22:47.761Z,51.98
2018-04-09T13:23:47.893Z,52.18
2018-04-09T13:24:47.790Z,51.67
2018-04-09T13:25:47.804Z,51.57
2018-04-09T13:26:48.904Z,52.06
2018-04-09T13:27:47.831Z,52.06
2018-04-09T13:28:47.994Z,52.06
2018-04-09T13:29:47.859Z,52.34
2018-04-09T13:30:47.946Z,52.34
2018-04-09T13:31:47.902Z,52.73
2018-04-09T13:32:47.896Z,52.34
2018-04-09T13:33:47.909Z,52.37
2018-04-09T13:34:47.924Z,52.25
2018-04-09T13:35:48.018Z,51.86
2018-04-09T13:36:47.956Z,51.86
2018-04-09T13:37:47.964Z,51.89
2018-04-09T13:38:47.983Z,52.18
2018-04-09T13:39:48.004Z,51.98
2018-04-09T13:40:48.006Z,51.70
2018-04-09T13:41:48.023Z,51.89
2018-04-09T13:42:48.035Z,51.79
2018-04-09T13:43:48.053Z,51.50
2018-04-09T13:44:48.062Z,51.24
2018-04-09T13:45:48.087Z,50.93
2018-04-09T13:46:48.216Z,51.24
2018-04-09T13:47:48.128Z,51.12
2018-04-09T13:48:48.128Z,51.53
2018-04-09T13:49:48.143Z,51.24
2018-04-09T13:50:48.144Z,51.14
2018-04-09T13:51:48.154Z,50.95
2018-04-09T13:52:48.180Z,50.76
2018-04-09T13:53:48.217Z,51.05
2018-04-09T13:54:48.203Z,50.95
2018-04-09T13:55:48.214Z,50.66